Time;durP1;ratioP1;P1;durP2;ratioP2;P2;SDS_P1;SDS_P2;PMS_P1;PMS_P2;Temp;Humidity;BMP_temperature;BMP_pressure;BME280_temperature;BME280_humidity;BME280_pressure;Samples;Min_cycle;Max_cycle;Signal;HPM_P1;HPM_P2
2023/01/14 00:00:54;;;;;;;12.80;2.10;;;7.70;99.90;;;;;;5034469;28;20084;-77
2023/01/14 00:03:19;;;;;;;13.63;2.53;;;7.60;99.90;;;;;;5027871;28;20069;-77
2023/01/14 00:05:56;;;;;;;10.15;2.10;;;7.70;99.90;;;;;;5047285;28;20048;-77
2023/01/14 00:08:22;;;;;;;13.85;2.83;;;7.70;99.90;;;;;;5034209;28;20485;-77
2023/01/14 00:10:47;;;;;;;11.00;2.40;;;7.70;99.90;;;;;;5018006;28;20043;-77
2023/01/14 00:13:13;;;;;;;16.73;2.90;;;7.70;99.90;;;;;;5035486;28;20098;-77
2023/01/14 00:15:38;;;;;;;12.45;2.63;;;7.70;99.90;;;;;;5022490;28;20060;-77
2023/01/14 00:18:04;;;;;;;9.73;2.28;;;7.60;99.90;;;;;;5014611;28;20068;-77
2023/01/14 00:20:30;;;;;;;12.93;2.60;;;7.60;99.90;;;;;;5019148;28;20163;-77
2023/01/14 00:22:56;;;;;;;13.88;2.65;;;7.60;99.90;;;;;;5018617;28;20493;-77
2023/01/14 00:25:22;;;;;;;12.65;2.80;;;7.60;99.90;;;;;;5026018;28;20094;-77
2023/01/14 00:27:47;;;;;;;13.00;2.92;;;7.50;99.90;;;;;;5026986;28;20056;-77
2023/01/14 00:30:13;;;;;;;12.20;2.60;;;7.50;99.90;;;;;;5028271;28;20060;-76
2023/01/14 00:32:39;;;;;;;15.63;2.97;;;7.50;99.90;;;;;;5032392;28;20037;-77
2023/01/14 00:35:05;;;;;;;16.63;2.95;;;7.50;99.90;;;;;;5039645;28;20041;-77
2023/01/14 00:37:30;;;;;;;16.42;2.85;;;7.50;99.90;;;;;;5009682;28;20142;-77
2023/01/14 00:39:56;;;;;;;20.45;3.05;;;7.50;99.90;;;;;;5037063;28;20079;-77
2023/01/14 00:42:21;;;;;;;16.10;2.90;;;7.40;99.90;;;;;;5022155;28;20504;-77
2023/01/14 00:44:47;;;;;;;17.88;3.42;;;7.40;99.90;;;;;;5033286;28;20119;-77
2023/01/14 00:47:12;;;;;;;12.32;2.60;;;7.40;99.90;;;;;;5024360;28;20045;-77
2023/01/14 00:49:38;;;;;;;16.23;2.70;;;7.40;99.90;;;;;;5036817;28;20052;-77
2023/01/14 00:52:04;;;;;;;14.73;3.20;;;7.40;99.90;;;;;;5033472;28;20037;-77
2023/01/14 00:54:31;;;;;;;12.60;2.97;;;7.40;99.90;;;;;;5033977;28;20504;-77
2023/01/14 00:56:56;;;;;;;17.10;3.17;;;7.40;99.90;;;;;;5049686;28;20124;-77
2023/01/14 00:59:23;;;;;;;15.38;3.13;;;7.40;99.90;;;;;;5023190;28;20123;-76
2023/01/14 01:01:51;;;;;;;17.73;2.80;;;7.60;99.90;;;;;;5044269;28;20056;-77
2023/01/14 01:04:17;;;;;;;21.13;2.97;;;7.40;99.90;;;;;;5031693;28;20456;-77
2023/01/14 01:06:43;;;;;;;17.38;3.10;;;7.50;99.90;;;;;;5017035;28;20492;-77
2023/01/14 01:09:08;;;;;;;19.45;2.70;;;7.50;99.90;;;;;;5032184;28;20043;-77
2023/01/14 01:11:34;;;;;;;16.38;3.10;;;7.50;99.90;;;;;;5025686;28;20100;-77
2023/01/14 01:14:00;;;;;;;22.98;4.07;;;7.50;99.90;;;;;;5045000;28;20045;-77
2023/01/14 01:16:26;;;;;;;20.95;3.30;;;7.50;99.90;;;;;;5027367;28;20555;-77
2023/01/14 01:18:54;;;;;;;24.02;3.60;;;7.50;99.90;;;;;;5032447;28;20119;-77
2023/01/14 01:21:20;;;;;;;16.60;3.58;;;7.50;99.90;;;;;;5028234;28;20048;-77
2023/01/14 01:23:47;;;;;;;14.50;3.22;;;7.50;99.90;;;;;;5051848;28;20047;-77
2023/01/14 01:26:19;;;;;;;15.43;3.10;;;7.50;99.90;;;;;;5018373;28;20120;-77
2023/01/14 01:28:48;;;;;;;21.15;3.30;;;7.50;99.90;;;;;;5027509;28;20412;-77
2023/01/14 01:31:15;;;;;;;16.80;3.25;;;7.50;99.90;;;;;;5026159;28;20107;-77
2023/01/14 01:33:41;;;;;;;20.95;3.22;;;7.50;99.90;;;;;;5030271;28;20044;-77
2023/01/14 01:36:12;;;;;;;18.77;3.30;;;7.50;99.90;;;;;;5037661;28;20037;-77
2023/01/14 01:38:39;;;;;;;16.08;3.20;;;7.50;99.90;;;;;;5033164;28;20123;-77
2023/01/14 01:41:04;;;;;;;19.45;3.50;;;7.70;99.90;;;;;;5021617;28;20048;-77
2023/01/14 01:43:32;;;;;;;19.10;2.83;;;7.60;99.90;;;;;;5035232;28;20480;-77
2023/01/14 01:46:01;;;;;;;15.63;2.83;;;7.60;99.90;;;;;;5031148;28;20044;-77
2023/01/14 01:48:37;;;;;;;20.23;3.72;;;7.60;99.90;;;;;;5021211;28;20041;-77
2023/01/14 01:51:09;;;;;;;26.80;4.70;;;7.60;99.90;;;;;;5040185;28;20045;-77
2023/01/14 01:53:39;;;;;;;13.60;2.90;;;7.60;99.90;;;;;;5022170;28;20041;-77
2023/01/14 01:56:06;;;;;;;13.70;2.90;;;7.60;99.90;;;;;;5035455;28;20729;-77
2023/01/14 01:58:33;;;;;;;13.02;3.10;;;7.60;99.90;;;;;;5019700;28;20137;-76
2023/01/14 02:01:00;;;;;;;20.88;3.08;;;7.60;99.90;;;;;;5055565;28;20064;-77
2023/01/14 02:03:40;;;;;;;19.52;3.00;;;7.70;99.90;;;;;;5024588;28;20038;-77
2023/01/14 02:06:06;;;;;;;18.45;3.45;;;7.70;99.90;;;;;;5032881;28;20039;-76
2023/01/14 02:08:35;;;;;;;23.05;3.20;;;7.70;99.90;;;;;;5025190;28;20468;-77
2023/01/14 02:11:13;;;;;;;19.25;3.53;;;7.70;99.90;;;;;;5045573;28;20037;-77
2023/01/14 02:14:16;;;;;;;16.30;3.53;;;7.70;99.90;;;;;;5038272;28;20162;-77
2023/01/14 02:16:56;;;;;;;17.55;2.40;;;7.60;99.90;;;;;;5028758;28;20042;-77
2023/01/14 02:19:46;;;;;;;14.73;2.63;;;7.60;99.90;;;;;;5031354;28;20169;-76
2023/01/14 02:22:33;;;;;;;17.05;3.33;;;7.70;99.90;;;;;;5036139;28;20167;-77
2023/01/14 02:25:41;;;;;;;16.27;2.97;;;7.60;99.90;;;;;;5031930;28;20049;-77
2023/01/14 02:28:38;;;;;;;18.02;2.70;;;7.60;99.90;;;;;;5012812;28;20041;-77
2023/01/14 02:31:28;;;;;;;24.35;2.92;;;7.60;99.90;;;;;;5034309;28;20041;-77
2023/01/14 02:34:21;;;;;;;16.80;2.80;;;7.60;99.90;;;;;;5012611;28;20048;-77
2023/01/14 02:37:28;;;;;;;17.70;2.67;;;7.50;99.90;;;;;;5018270;28;20057;-77
2023/01/14 02:39:59;;;;;;;18.58;2.88;;;7.40;99.90;;;;;;5042483;28;20116;-77
2023/01/14 02:45:26;;;;;;;24.50;3.38;;;7.30;99.90;;;;;;5031119;28;20056;-77
2023/01/14 02:47:52;;;;;;;20.30;4.18;;;7.30;99.90;;;;;;5034082;28;20477;-77
2023/01/14 02:50:19;;;;;;;17.10;3.10;;;7.30;99.90;;;;;;5032015;28;20094;-77
2023/01/14 02:52:45;;;;;;;21.88;2.67;;;7.20;99.90;;;;;;5032096;28;20109;-77
2023/01/14 02:55:33;;;;;;;22.20;3.75;;;7.20;99.90;;;;;;5029367;28;20497;-77
2023/01/14 02:58:17;;;;;;;22.95;3.85;;;7.10;99.90;;;;;;5028714;28;20461;-77
2023/01/14 03:01:14;;;;;;;18.77;2.63;;;7.10;99.90;;;;;;5036182;28;20562;-78
2023/01/14 03:04:03;;;;;;;16.83;2.63;;;7.00;99.90;;;;;;5039795;28;20088;-76
2023/01/14 03:06:40;;;;;;;18.15;2.65;;;7.00;99.90;;;;;;5036142;28;20045;-77
2023/01/14 03:09:29;;;;;;;14.25;2.35;;;6.90;99.90;;;;;;5020250;28;20048;-77
2023/01/14 03:12:04;;;;;;;14.80;2.45;;;6.90;99.90;;;;;;5030501;28;20045;-77
2023/01/14 03:14:38;;;;;;;19.52;3.17;;;6.80;99.90;;;;;;5051653;28;20033;-77
2023/01/14 03:17:12;;;;;;;20.02;2.90;;;6.80;99.90;;;;;;5035466;28;20049;-78
2023/01/14 03:19:59;;;;;;;14.70;2.63;;;6.80;99.90;;;;;;5040398;28;20115;-77
2023/01/14 03:22:27;;;;;;;15.30;2.72;;;7.10;99.90;;;;;;5030656;28;20073;-78
2023/01/14 03:24:56;;;;;;;18.42;3.15;;;6.70;99.90;;;;;;5049064;28;20043;-77
2023/01/14 03:27:25;;;;;;;16.30;2.67;;;6.70;99.90;;;;;;5043059;28;20036;-78
2023/01/14 03:29:54;;;;;;;16.00;3.20;;;6.70;99.90;;;;;;5033691;28;20056;-77
2023/01/14 03:32:27;;;;;;;15.68;2.65;;;6.60;99.90;;;;;;5031596;28;20069;-78
2023/01/14 03:35:17;;;;;;;15.48;2.67;;;6.60;99.90;;;;;;5044098;28;20509;-77
2023/01/14 03:37:52;;;;;;;12.70;2.58;;;6.50;99.90;;;;;;5041526;28;20090;-77
2023/01/14 03:40:20;;;;;;;18.15;3.03;;;6.60;99.90;;;;;;5047992;28;20538;-77
2023/01/14 03:42:52;;;;;;;14.40;2.30;;;6.50;99.90;;;;;;5022970;28;20053;-77
2023/01/14 03:45:32;;;;;;;21.47;2.97;;;6.60;99.90;;;;;;5046395;28;20037;-79
2023/01/14 03:47:58;;;;;;;15.75;2.63;;;6.70;99.90;;;;;;5037341;28;20052;-77
2023/01/14 03:50:30;;;;;;;17.27;2.78;;;6.50;99.90;;;;;;5020896;28;20042;-77
2023/01/14 03:53:22;;;;;;;16.70;3.13;;;6.50;99.90;;;;;;5009298;28;20146;-77
2023/01/14 03:56:15;;;;;;;20.30;2.57;;;6.40;99.90;;;;;;5048455;28;20045;-77
2023/01/14 03:59:00;;;;;;;22.35;3.45;;;6.40;99.90;;;;;;5019445;28;20489;-77
2023/01/14 04:01:34;;;;;;;11.95;2.50;;;6.40;99.90;;;;;;5013033;28;20053;-77
2023/01/14 04:04:01;;;;;;;15.98;3.00;;;6.40;99.90;;;;;;5034188;28;20051;-77
2023/01/14 04:06:27;;;;;;;10.63;2.53;;;6.40;99.90;;;;;;5035695;28;20048;-78
2023/01/14 04:08:52;;;;;;;16.27;2.95;;;6.40;99.90;;;;;;5037800;28;20086;-77
2023/01/14 04:11:18;;;;;;;16.80;2.85;;;6.40;99.90;;;;;;5036984;28;20071;-77
2023/01/14 04:16:27;;;;;;;17.45;3.00;;;6.40;99.90;;;;;;5045378;28;20044;-77
2023/01/14 04:18:53;;;;;;;25.02;3.97;;;6.40;99.90;;;;;;5015985;28;20033;-77
2023/01/14 04:21:19;;;;;;;10.82;2.80;;;6.40;99.90;;;;;;5030289;28;20059;-77
2023/01/14 04:23:53;;;;;;;15.90;2.80;;;6.40;99.90;;;;;;5049315;28;20485;-75
2023/01/14 04:26:19;;;;;;;16.48;3.00;;;6.30;99.90;;;;;;5038777;28;20491;-77
2023/01/14 04:28:44;;;;;;;16.48;3.28;;;6.30;99.90;;;;;;5032963;28;20083;-77
2023/01/14 04:31:10;;;;;;;21.70;3.15;;;6.30;99.90;;;;;;5044560;28;20033;-77
2023/01/14 04:33:36;;;;;;;22.15;3.05;;;6.30;99.90;;;;;;5034346;28;20504;-77
2023/01/14 04:36:01;;;;;;;19.67;2.92;;;6.30;99.90;;;;;;5021109;28;20281;-77
2023/01/14 04:38:27;;;;;;;16.35;3.03;;;6.30;99.90;;;;;;5023945;28;20111;-77
2023/01/14 04:40:57;;;;;;;17.85;3.42;;;6.20;99.90;;;;;;5010960;28;20048;-77
2023/01/14 04:43:23;;;;;;;19.45;3.30;;;6.20;99.90;;;;;;5006274;28;20037;-78
2023/01/14 04:45:50;;;;;;;19.25;4.50;;;6.20;99.90;;;;;;5031175;28;20069;-77
2023/01/14 04:48:18;;;;;;;19.65;3.28;;;6.20;99.90;;;;;;5017673;28;20036;-76
2023/01/14 04:50:45;;;;;;;20.20;4.10;;;6.20;99.90;;;;;;5033660;28;20079;-78
2023/01/14 04:53:16;;;;;;;21.70;4.22;;;6.20;99.90;;;;;;5007429;28;20033;-76
2023/01/14 04:55:45;;;;;;;25.52;3.72;;;6.20;99.90;;;;;;5033377;28;20040;-77
2023/01/14 04:58:13;;;;;;;20.48;3.97;;;6.20;99.90;;;;;;5034447;28;20040;-76
2023/01/14 05:00:39;;;;;;;15.02;3.67;;;6.20;99.90;;;;;;5031704;28;20059;-77
2023/01/14 05:03:10;;;;;;;15.70;3.22;;;6.20;99.90;;;;;;5017507;28;20091;-77
2023/01/14 05:05:36;;;;;;;23.10;4.22;;;6.20;99.90;;;;;;5030918;28;20104;-77
2023/01/14 05:08:03;;;;;;;13.70;4.00;;;6.20;99.90;;;;;;5047418;28;20044;-77
2023/01/14 05:10:30;;;;;;;21.77;3.50;;;6.20;99.90;;;;;;5019972;28;20381;-77
2023/01/14 05:12:56;;;;;;;20.30;4.25;;;6.20;99.90;;;;;;5021766;28;20056;-77
2023/01/14 05:15:26;;;;;;;26.00;4.05;;;6.20;99.90;;;;;;5024742;28;20037;-77
2023/01/14 05:17:52;;;;;;;19.52;4.28;;;6.20;99.90;;;;;;5032873;28;20401;-77
2023/01/14 05:20:18;;;;;;;28.38;4.18;;;6.10;99.90;;;;;;5018886;28;20029;-77
2023/01/14 05:22:43;;;;;;;16.50;3.85;;;6.10;99.90;;;;;;5022097;28;20060;-77
2023/01/14 05:25:09;;;;;;;23.13;4.63;;;6.10;99.90;;;;;;5029457;28;20034;-77
2023/01/14 05:27:35;;;;;;;31.48;4.60;;;6.40;99.90;;;;;;5027700;28;20040;-78
2023/01/14 05:30:02;;;;;;;22.52;4.70;;;6.10;99.90;;;;;;5017413;28;20063;-77
2023/01/14 05:32:28;;;;;;;22.30;4.10;;;6.10;99.90;;;;;;5025596;28;20037;-77
2023/01/14 05:34:54;;;;;;;21.17;4.13;;;6.10;99.90;;;;;;5032467;28;20080;-77
2023/01/14 05:37:19;;;;;;;27.67;4.50;;;6.10;99.90;;;;;;5027218;28;20454;-77
2023/01/14 05:39:45;;;;;;;24.65;4.47;;;6.10;99.90;;;;;;5023562;28;20035;-77
2023/01/14 05:47:40;;;;;;;25.90;4.43;;;6.10;99.90;;;;;;5020809;28;20049;-77
2023/01/14 05:50:06;;;;;;;24.63;5.70;;;6.10;99.90;;;;;;5053464;28;20037;-77
2023/01/14 05:52:32;;;;;;;34.17;4.85;;;6.10;99.90;;;;;;5028171;28;20032;-77
2023/01/14 05:54:57;;;;;;;21.77;5.25;;;6.10;99.90;;;;;;5020528;28;20050;-77
2023/01/14 05:57:23;;;;;;;23.77;5.00;;;6.10;99.90;;;;;;5024141;28;20443;-77
2023/01/14 05:59:48;;;;;;;23.85;5.00;;;6.10;99.90;;;;;;5022821;28;20046;-77
2023/01/14 06:07:42;;;;;;;32.70;5.40;;;6.10;99.90;;;;;;5029565;28;20049;-77
2023/01/14 06:10:08;;;;;;;24.27;4.97;;;6.10;99.90;;;;;;5040812;28;20041;-77
2023/01/14 06:12:57;;;;;;;26.63;5.10;;;6.10;99.90;;;;;;5031222;28;20548;-77
2023/01/14 06:15:19;;;;;;;21.92;5.25;;;6.20;99.90;;;;;;5028784;28;20413;-77
2023/01/14 06:17:46;;;;;;;26.38;5.03;;;6.10;99.90;;;;;;5032412;28;20052;-76
2023/01/14 06:20:12;;;;;;;29.60;5.63;;;6.10;99.90;;;;;;5006500;28;20083;-77
2023/01/14 06:22:38;;;;;;;27.27;5.60;;;6.10;99.90;;;;;;5015708;28;20041;-77
2023/01/14 06:25:04;;;;;;;32.03;5.63;;;6.10;99.90;;;;;;5030441;28;20108;-76
2023/01/14 06:27:31;;;;;;;25.10;5.13;;;6.10;99.90;;;;;;5030751;28;20048;-77
2023/01/14 06:29:56;;;;;;;29.10;6.15;;;6.10;99.90;;;;;;5031052;28;20497;-76
2023/01/14 06:32:22;;;;;;;28.02;5.78;;;6.10;99.90;;;;;;5027998;28;20043;-78
2023/01/14 06:34:48;;;;;;;27.60;5.20;;;6.20;99.90;;;;;;5030788;28;20516;-74
2023/01/14 06:37:13;;;;;;;35.88;5.47;;;6.20;99.90;;;;;;5046355;28;20116;-76
2023/01/14 06:39:39;;;;;;;27.05;5.75;;;6.10;99.90;;;;;;5031505;28;20045;-78
2023/01/14 06:42:04;;;;;;;33.53;6.47;;;6.30;99.90;;;;;;5031524;28;20080;-77
2023/01/14 06:44:30;;;;;;;29.48;5.75;;;6.20;99.90;;;;;;5034185;28;20033;-77
2023/01/14 06:46:55;;;;;;;26.08;5.50;;;6.20;99.90;;;;;;5032912;28;20045;-77
2023/01/14 06:49:21;;;;;;;32.17;5.82;;;6.20;99.90;;;;;;5037178;28;20425;-78
2023/01/14 06:51:47;;;;;;;27.25;5.45;;;6.20;99.90;;;;;;5030881;28;20049;-77
2023/01/14 06:54:13;;;;;;;34.45;6.72;;;6.20;99.90;;;;;;5030197;28;20044;-77
2023/01/14 06:56:38;;;;;;;34.08;5.85;;;6.20;99.90;;;;;;5027186;28;20048;-77
2023/01/14 06:59:04;;;;;;;33.08;5.30;;;6.20;99.90;;;;;;5037772;28;20044;-77
2023/01/14 07:01:30;;;;;;;31.85;5.32;;;6.20;99.90;;;;;;5039670;28;20037;-78
2023/01/14 07:03:55;;;;;;;25.90;5.57;;;6.20;99.90;;;;;;5037712;28;20497;-78
2023/01/14 07:06:21;;;;;;;26.83;5.35;;;6.20;99.90;;;;;;5020431;28;20037;-77
2023/01/14 07:08:47;;;;;;;28.75;5.25;;;6.30;99.90;;;;;;5033770;28;21478;-77
2023/01/14 07:11:12;;;;;;;24.13;6.18;;;6.20;99.90;;;;;;5024530;28;20044;-77
2023/01/14 07:13:38;;;;;;;31.80;5.18;;;6.30;99.90;;;;;;5041619;28;20036;-77
2023/01/14 07:16:04;;;;;;;27.55;6.13;;;6.20;99.90;;;;;;5037878;28;20062;-77
2023/01/14 07:18:29;;;;;;;22.23;4.88;;;6.20;99.90;;;;;;5036659;28;20033;-79
2023/01/14 07:20:59;;;;;;;25.15;6.10;;;6.20;99.90;;;;;;5039238;28;20044;-77
2023/01/14 07:23:26;;;;;;;27.42;5.38;;;6.30;99.90;;;;;;5052969;28;20048;-76
2023/01/14 07:25:55;;;;;;;28.40;5.50;;;6.30;99.90;;;;;;5024908;28;20041;-77
2023/01/14 07:28:22;;;;;;;29.60;5.63;;;6.30;99.90;;;;;;5036202;28;20045;-76
2023/01/14 07:30:48;;;;;;;31.45;5.55;;;6.30;99.90;;;;;;5031986;28;20044;-75
2023/01/14 07:33:14;;;;;;;26.90;4.88;;;6.30;99.90;;;;;;5036797;28;20124;-78
2023/01/14 07:35:39;;;;;;;33.65;6.75;;;6.30;99.90;;;;;;5039168;28;20409;-78
2023/01/14 07:38:05;;;;;;;28.35;5.00;;;6.40;99.90;;;;;;5038488;28;20072;-77
2023/01/14 07:40:31;;;;;;;24.88;5.85;;;6.40;99.90;;;;;;5041798;28;20124;-76
2023/01/14 07:42:57;;;;;;;22.42;4.97;;;6.40;99.90;;;;;;5032408;28;20102;-77
2023/01/14 07:45:24;;;;;;;26.50;4.38;;;6.40;99.90;;;;;;5031259;28;20151;-77
2023/01/14 07:47:50;;;;;;;26.92;4.97;;;6.40;99.90;;;;;;5049142;28;20396;-78
2023/01/14 07:50:17;;;;;;;17.25;3.80;;;6.60;99.90;;;;;;5028951;28;20045;-77
2023/01/14 07:52:43;;;;;;;29.35;5.80;;;6.40;99.90;;;;;;5035103;28;20044;-77
2023/01/14 07:55:08;;;;;;;24.63;4.30;;;6.40;99.90;;;;;;5033865;28;20040;-77
2023/01/14 07:57:34;;;;;;;26.15;4.78;;;6.40;99.90;;;;;;5036456;28;20043;-77
2023/01/14 08:00:00;;;;;;;20.88;4.05;;;6.50;99.90;;;;;;5028424;28;20072;-78
2023/01/14 08:02:25;;;;;;;30.15;4.18;;;6.40;99.90;;;;;;5037296;28;20098;-79
2023/01/14 08:04:51;;;;;;;25.63;3.88;;;6.50;99.90;;;;;;5019639;28;20521;-78
2023/01/14 08:07:16;;;;;;;24.67;4.28;;;6.50;99.90;;;;;;5038724;28;20124;-79
2023/01/14 08:09:42;;;;;;;21.77;4.22;;;6.50;99.90;;;;;;5028065;28;20037;-78
2023/01/14 08:12:07;;;;;;;23.02;3.92;;;6.60;99.90;;;;;;5035272;28;20051;-78
2023/01/14 08:14:33;;;;;;;22.33;4.53;;;6.50;99.90;;;;;;5033150;28;20079;-78
2023/01/14 08:17:02;;;;;;;29.88;4.32;;;6.60;99.90;;;;;;5038898;28;20034;-77
2023/01/14 08:19:37;;;;;;;19.42;3.78;;;6.60;99.90;;;;;;5027792;28;20187;-78
2023/01/14 08:22:03;;;;;;;16.63;3.58;;;6.50;99.90;;;;;;5016706;28;20041;-78
2023/01/14 08:24:29;;;;;;;21.15;3.92;;;6.50;99.90;;;;;;5029451;28;20107;-78
2023/01/14 08:26:54;;;;;;;18.85;3.42;;;6.50;99.90;;;;;;5029955;28;20559;-77
2023/01/14 08:29:20;;;;;;;24.80;4.05;;;6.50;99.90;;;;;;5035142;28;20037;-78
2023/01/14 08:31:54;;;;;;;19.27;3.80;;;6.50;99.90;;;;;;5036474;28;20087;-78
2023/01/14 08:34:21;;;;;;;22.92;3.65;;;6.50;99.90;;;;;;5029109;28;20044;-78
2023/01/14 08:36:48;;;;;;;20.30;3.70;;;6.50;99.90;;;;;;5032918;28;20040;-77
2023/01/14 08:39:14;;;;;;;23.67;3.78;;;6.70;99.90;;;;;;5028718;28;20045;-77
2023/01/14 08:41:39;;;;;;;21.00;3.47;;;6.50;99.90;;;;;;5011120;28;20408;-78
2023/01/14 08:44:05;;;;;;;22.85;3.53;;;6.50;99.90;;;;;;5033287;28;20029;-77
2023/01/14 08:46:31;;;;;;;22.83;3.50;;;6.50;99.90;;;;;;5036043;28;20037;-78
2023/01/14 08:48:57;;;;;;;22.63;3.78;;;6.50;99.90;;;;;;5039976;28;20056;-78
2023/01/14 08:51:26;;;;;;;19.70;3.65;;;6.50;99.90;;;;;;5041289;28;20037;-78
2023/01/14 08:53:54;;;;;;;25.33;3.92;;;6.50;99.90;;;;;;5037633;28;20033;-78
2023/01/14 08:56:20;;;;;;;17.83;3.85;;;6.50;99.90;;;;;;5029345;28;20039;-78
2023/01/14 08:58:45;;;;;;;21.67;3.50;;;6.50;99.90;;;;;;5036986;28;20562;-78
2023/01/14 09:01:12;;;;;;;21.73;3.78;;;6.50;99.90;;;;;;5025734;28;20040;-78
2023/01/14 09:03:38;;;;;;;27.98;3.50;;;6.60;99.90;;;;;;5030646;28;20121;-78
2023/01/14 09:06:12;;;;;;;28.30;4.18;;;6.50;99.90;;;;;;5032649;28;21294;-78
2023/01/14 09:17:06;;;;;;;14.27;3.10;;;6.60;99.90;;;;;;5031748;28;20040;-78
2023/01/14 09:19:49;;;;;;;13.10;2.88;;;7.20;99.90;;;;;;5025738;28;20040;-77
2023/01/14 09:22:19;;;;;;;;;;;6.60;99.90;;;;;;5040028;28;20050;-77
2023/01/14 09:24:45;;;;;;;18.48;3.33;;;6.60;99.90;;;;;;5032065;28;20438;-78
2023/01/14 09:27:11;;;;;;;13.10;3.17;;;6.60;99.90;;;;;;5031255;28;20036;-77
2023/01/14 09:29:36;;;;;;;17.00;3.80;;;6.60;99.90;;;;;;5021056;28;20037;-78
2023/01/14 09:32:02;;;;;;;15.25;3.30;;;6.60;99.90;;;;;;5031941;28;20124;-77
2023/01/14 09:34:28;;;;;;;9.13;2.75;;;6.60;99.90;;;;;;5028847;28;20053;-77
2023/01/14 09:36:54;;;;;;;12.07;2.97;;;6.70;99.90;;;;;;5040787;28;20038;-77
2023/01/14 09:39:20;;;;;;;12.93;2.55;;;6.70;99.90;;;;;;5027708;28;20378;-77
2023/01/14 09:42:10;;;;;;;13.75;2.90;;;6.70;99.90;;;;;;5016573;28;20116;-77
2023/01/14 09:44:36;;;;;;;12.35;3.03;;;6.70;99.90;;;;;;5027067;28;20509;-77
2023/01/14 09:47:02;;;;;;;12.10;3.38;;;6.90;99.90;;;;;;5048212;28;20117;-77
2023/01/14 09:49:28;;;;;;;16.83;2.88;;;6.80;99.90;;;;;;5029871;28;20045;-77
2023/01/14 09:52:09;;;;;;;13.88;2.45;;;6.80;99.90;;;;;;5016422;28;20039;-77
2023/01/14 09:54:49;;;;;;;11.38;2.30;;;6.80;99.90;;;;;;5028397;28;20029;-77
2023/01/14 09:57:37;;;;;;;10.80;2.53;;;6.80;99.90;;;;;;5045097;28;20041;-77
2023/01/14 10:00:29;;;;;;;12.18;2.65;;;6.80;99.90;;;;;;5005127;28;20073;-77
2023/01/14 10:03:30;;;;;;;8.65;2.28;;;6.90;99.90;;;;;;5030845;28;20094;-78
2023/01/14 10:06:03;;;;;;;12.18;2.95;;;6.90;99.90;;;;;;5040344;28;20057;-77
2023/01/14 10:08:36;;;;;;;4.97;1.95;;;6.90;99.90;;;;;;5043876;28;20482;-77
2023/01/14 10:11:04;;;;;;;10.32;2.10;;;6.90;99.90;;;;;;5031778;28;20037;-77
2023/01/14 10:13:34;;;;;;;7.05;2.13;;;7.00;99.90;;;;;;5026291;28;20390;-77
2023/01/14 10:16:06;;;;;;;6.38;1.85;;;7.00;99.90;;;;;;5027717;28;20037;-77
2023/01/14 10:18:40;;;;;;;9.60;2.15;;;7.00;99.90;;;;;;5026285;28;20124;-77
2023/01/14 10:21:33;;;;;;;7.53;1.85;;;7.10;99.90;;;;;;5046818;28;20100;-78
2023/01/14 10:23:58;;;;;;;9.52;2.33;;;8.00;99.90;;;;;;5022472;28;20061;-78
2023/01/14 10:26:32;;;;;;;9.07;2.22;;;7.10;99.90;;;;;;5032448;28;20056;-77
2023/01/14 10:29:12;;;;;;;6.47;2.35;;;7.10;99.90;;;;;;5046263;28;20059;-77
2023/01/14 10:31:38;;;;;;;7.32;1.88;;;7.10;99.90;;;;;;5025606;28;20344;-77
2023/01/14 10:34:05;;;;;;;8.20;2.17;;;7.10;99.90;;;;;;5045076;28;20125;-77
2023/01/14 10:36:31;;;;;;;6.20;2.25;;;7.10;99.90;;;;;;5031065;28;20128;-77
2023/01/14 10:38:59;;;;;;;8.35;2.13;;;7.20;99.90;;;;;;5030090;28;20098;-77
2023/01/14 10:44:16;;;;;;;6.68;2.05;;;7.60;99.90;;;;;;5024043;28;20049;-77
2023/01/14 10:46:45;;;;;;;6.72;2.05;;;7.20;99.90;;;;;;5048637;28;20094;-77
2023/01/14 10:49:32;;;;;;;6.63;2.20;;;7.20;99.90;;;;;;5035495;28;20039;-77
2023/01/14 10:51:58;;;;;;;7.05;2.53;;;7.20;99.90;;;;;;5033613;28;20037;-77
2023/01/14 10:54:25;;;;;;;7.60;2.80;;;7.30;99.90;;;;;;5036559;28;20035;-77
2023/01/14 10:57:16;;;;;;;5.78;2.17;;;7.30;99.90;;;;;;5050844;28;20045;-78
2023/01/14 10:59:51;;;;;;;6.40;2.38;;;7.30;99.90;;;;;;5056936;28;20044;-77
2023/01/14 11:02:19;;;;;;;7.07;2.25;;;7.30;99.90;;;;;;5046183;28;20083;-78
2023/01/14 11:04:45;;;;;;;6.15;2.63;;;7.60;99.90;;;;;;5039695;28;20045;-78
2023/01/14 11:07:29;;;;;;;8.05;2.35;;;7.40;99.90;;;;;;5046704;28;20035;-77
2023/01/14 11:09:56;;;;;;;8.15;2.22;;;7.40;99.90;;;;;;5021522;28;20053;-77
2023/01/14 11:12:31;;;;;;;5.00;2.45;;;7.40;99.90;;;;;;5027542;28;20076;-77
2023/01/14 11:14:57;;;;;;;7.82;1.80;;;7.40;99.90;;;;;;5027545;28;20049;-78
2023/01/14 11:17:32;;;;;;;7.10;2.10;;;7.40;99.90;;;;;;5018992;28;20029;-78
2023/01/14 11:20:23;;;;;;;7.32;1.95;;;7.50;99.90;;;;;;5019215;28;20511;-78
2023/01/14 11:22:59;;;;;;;6.97;1.85;;;7.50;99.90;;;;;;5021908;28;20045;-77
2023/01/14 11:25:25;;;;;;;10.05;2.20;;;7.50;99.90;;;;;;5013067;28;20034;-77
2023/01/14 11:27:51;;;;;;;7.80;1.85;;;7.50;99.90;;;;;;5031531;28;20052;-76
2023/01/14 11:30:18;;;;;;;10.10;2.40;;;7.50;99.90;;;;;;5051548;28;20041;-77
2023/01/14 11:32:50;;;;;;;6.43;2.20;;;7.50;99.90;;;;;;5050717;28;20132;-77
2023/01/14 11:35:29;;;;;;;7.20;2.03;;;7.50;99.90;;;;;;5026505;28;20412;-77
2023/01/14 11:37:56;;;;;;;6.57;1.80;;;7.50;99.90;;;;;;5033038;28;20049;-77
2023/01/14 11:43:21;;;;;;;5.65;2.10;;;7.60;99.90;;;;;;5047560;28;20110;-77
2023/01/14 11:46:02;;;;;;;6.03;2.25;;;7.90;99.90;;;;;;5028796;28;20033;-77
2023/01/14 11:48:29;;;;;;;6.95;2.10;;;7.70;99.90;;;;;;5035125;28;20476;-77
2023/01/14 11:50:58;;;;;;;6.95;1.88;;;7.60;99.90;;;;;;5028419;28;20048;-77
2023/01/14 11:53:26;;;;;;;7.40;1.92;;;7.60;99.90;;;;;;5029033;28;20037;-77
2023/01/14 11:55:57;;;;;;;4.15;1.52;;;7.70;99.90;;;;;;5026685;28;20044;-77
2023/01/14 11:58:27;;;;;;;7.18;2.00;;;7.70;99.90;;;;;;5034336;28;20516;-77
2023/01/14 12:01:19;;;;;;;6.05;1.95;;;7.70;99.90;;;;;;5033557;28;20051;-77
2023/01/14 12:03:56;;;;;;;5.40;1.92;;;7.80;99.90;;;;;;5023435;28;20063;-77
2023/01/14 12:06:25;;;;;;;4.97;1.67;;;7.80;99.90;;;;;;5028570;28;20071;-77
2023/01/14 12:08:59;;;;;;;4.05;1.50;;;7.90;99.90;;;;;;5034290;28;20075;-77
2023/01/14 12:11:48;;;;;;;4.55;1.80;;;7.90;99.90;;;;;;5028532;28;20025;-77
2023/01/14 12:17:11;;;;;;;5.97;1.75;;;7.90;99.90;;;;;;5026943;28;20056;-77
2023/01/14 12:19:51;;;;;;;4.32;1.98;;;7.90;99.90;;;;;;5026961;28;20068;-77
2023/01/14 12:22:25;;;;;;;4.25;1.55;;;8.00;99.90;;;;;;5029111;28;20044;-77
2023/01/14 12:25:25;;;;;;;5.22;1.83;;;8.10;99.90;;;;;;5033542;28;20124;-77
2023/01/14 12:27:58;;;;;;;8.65;1.60;;;8.10;99.90;;;;;;5011408;28;20406;-77
2023/01/14 12:30:35;;;;;;;4.40;1.90;;;8.20;99.90;;;;;;5033883;28;20048;-77
2023/01/14 12:33:19;;;;;;;3.03;1.38;;;8.30;99.90;;;;;;5034647;28;20072;-77
2023/01/14 12:35:50;;;;;;;3.67;1.52;;;8.20;99.90;;;;;;5045525;28;20033;-77
2023/01/14 12:47:05;;;;;;;5.72;1.60;;;8.40;99.90;;;;;;5024596;28;20057;-77
2023/01/14 12:49:32;;;;;;;2.97;1.55;;;8.50;99.90;;;;;;5033295;28;20052;-77
2023/01/14 12:52:00;;;;;;;4.40;1.30;;;8.50;99.90;;;;;;5029714;28;20143;-77
2023/01/14 12:54:30;;;;;;;5.80;1.40;;;8.50;99.90;;;;;;5026667;28;20409;-77
2023/01/14 12:56:57;;;;;;;3.85;1.20;;;8.50;99.90;;;;;;5032544;28;20039;-77
2023/01/14 12:59:31;;;;;;;2.63;1.25;;;8.70;99.90;;;;;;5023922;28;20106;-77
2023/01/14 13:02:04;;;;;;;2.83;1.50;;;8.70;99.90;;;;;;5009215;28;20405;-77
2023/01/14 13:04:37;;;;;;;2.97;1.33;;;8.70;99.90;;;;;;5033888;28;20659;-77
2023/01/14 13:07:05;;;;;;;3.30;1.17;;;8.70;99.90;;;;;;5027303;28;20044;-77
2023/01/14 13:09:46;;;;;;;2.05;1.27;;;8.70;99.90;;;;;;5027088;28;20120;-77
2023/01/14 13:12:26;;;;;;;3.88;1.20;;;8.70;99.90;;;;;;5057449;28;20490;-77
2023/01/14 13:15:00;;;;;;;4.05;1.20;;;8.70;99.90;;;;;;5051943;28;20384;-77
2023/01/14 13:17:37;;;;;;;2.75;1.00;;;8.80;99.90;;;;;;5032900;28;20029;-77
2023/01/14 13:20:28;;;;;;;1.77;0.98;;;8.80;99.90;;;;;;5019438;28;20539;-77
2023/01/14 13:23:01;;;;;;;1.60;0.98;;;8.90;99.90;;;;;;5046818;28;20482;-77
2023/01/14 13:25:45;;;;;;;3.30;1.27;;;9.00;99.90;;;;;;5028043;28;20128;-78
2023/01/14 13:28:11;;;;;;;1.67;1.10;;;9.00;99.90;;;;;;5030236;28;20039;-78
2023/01/14 13:30:50;;;;;;;1.52;1.02;;;9.60;99.90;;;;;;5025709;28;20124;-78
2023/01/14 13:33:27;;;;;;;1.70;1.00;;;9.10;99.90;;;;;;5041959;28;20033;-78
2023/01/14 13:36:11;;;;;;;2.80;1.08;;;9.10;99.90;;;;;;5024021;28;20055;-78
2023/01/14 13:38:48;;;;;;;2.53;0.93;;;9.10;99.90;;;;;;5028369;28;20405;-77
2023/01/14 13:41:40;;;;;;;2.35;1.08;;;9.20;99.90;;;;;;5031045;28;20063;-78
2023/01/14 13:44:24;;;;;;;1.23;0.87;;;9.20;99.90;;;;;;5027532;28;20579;-77
2023/01/14 13:46:59;;;;;;;2.42;0.80;;;9.30;99.90;;;;;;5006479;28;20045;-78
2023/01/14 13:49:51;;;;;;;6.25;1.20;;;9.40;99.90;;;;;;5037833;28;20072;-78
2023/01/14 13:52:25;;;;;;;2.70;1.00;;;9.40;99.90;;;;;;5025677;28;20041;-77